createdAt,value
2023-05-15T00:00:18.699Z,15.90
2023-05-15T00:02:47.271Z,15.80
2023-05-15T00:05:16.162Z,15.70
2023-05-15T00:07:44.703Z,15.70
2023-05-15T00:24:16.699Z,15.50
2023-05-15T00:26:45.347Z,15.40
2023-05-15T00:29:14.767Z,15.40
2023-05-15T00:31:42.998Z,15.40
2023-05-15T00:34:11.376Z,15.40
2023-05-15T00:36:39.729Z,15.40
2023-05-15T00:39:07.987Z,15.40
2023-05-15T00:41:39.849Z,15.40
2023-05-15T00:44:09.249Z,15.40
2023-05-15T00:46:39.408Z,15.40
2023-05-15T00:49:13.371Z,15.30
2023-05-15T00:51:50.570Z,15.30
2023-05-15T00:54:18.814Z,15.20
2023-05-15T00:56:51.550Z,15.20
2023-05-15T00:59:23.677Z,15.10
2023-05-15T01:01:52.498Z,15.10
2023-05-15T01:04:22.873Z,15.00
2023-05-15T01:06:53.793Z,15.00
2023-05-15T01:09:25.229Z,15.00
2023-05-15T01:11:58.052Z,15.00
2023-05-15T01:14:27.434Z,14.90
2023-05-15T01:16:55.702Z,14.90
2023-05-15T01:19:24.118Z,14.90
2023-05-15T01:22:22.046Z,14.90
2023-05-15T01:25:31.289Z,14.80
2023-05-15T01:28:09.969Z,14.80
2023-05-15T01:30:42.919Z,14.70
2023-05-15T01:33:21.932Z,14.70
2023-05-15T01:35:59.096Z,14.70
2023-05-15T01:38:37.972Z,14.70
2023-05-15T01:41:16.774Z,14.60
2023-05-15T01:43:57.703Z,14.60
2023-05-15T01:46:31.378Z,14.50
2023-05-15T01:49:03.987Z,14.50
2023-05-15T01:51:34.051Z,14.40
2023-05-15T01:54:04.508Z,14.40
2023-05-15T01:56:36.092Z,14.40
2023-05-15T01:59:31.983Z,14.40
2023-05-15T02:02:01.618Z,14.40
2023-05-15T02:04:30.994Z,14.40
2023-05-15T02:07:01.614Z,14.30
2023-05-15T02:09:31.324Z,14.30
2023-05-15T02:12:01.933Z,14.30
2023-05-15T02:14:33.442Z,14.30
2023-05-15T02:17:01.707Z,14.20
2023-05-15T02:19:29.938Z,14.20
2023-05-15T02:21:58.054Z,14.20
2023-05-15T02:24:26.227Z,14.20
2023-05-15T02:27:05.663Z,14.10
2023-05-15T02:30:03.144Z,14.10
2023-05-15T02:32:43.659Z,14.00
2023-05-15T02:35:22.696Z,14.00
2023-05-15T02:37:57.484Z,14.00
2023-05-15T02:40:29.791Z,14.00
2023-05-15T02:42:59.178Z,13.90
2023-05-15T02:45:30.997Z,13.90
2023-05-15T02:48:00.686Z,13.90
2023-05-15T02:50:29.490Z,13.80
2023-05-15T02:53:04.098Z,13.80
2023-05-15T03:05:23.451Z,13.70
2023-05-15T03:07:54.257Z,13.60
2023-05-15T03:10:24.064Z,13.60
2023-05-15T03:12:52.312Z,13.60
2023-05-15T03:15:20.507Z,13.50
2023-05-15T03:17:56.948Z,13.50
2023-05-15T03:20:26.557Z,13.50
2023-05-15T03:22:54.770Z,13.40
2023-05-15T03:25:24.529Z,13.40
2023-05-15T03:27:52.766Z,13.40
2023-05-15T03:30:21.117Z,13.40
2023-05-15T03:32:49.350Z,13.40
2023-05-15T03:35:17.715Z,13.40
2023-05-15T03:37:47.297Z,13.30
2023-05-15T03:40:15.879Z,13.30
2023-05-15T03:42:43.937Z,13.30
2023-05-15T03:45:13.199Z,13.20
2023-05-15T03:47:42.716Z,13.20
2023-05-15T03:50:12.216Z,13.20
2023-05-15T03:52:42.118Z,13.20
2023-05-15T03:55:12.204Z,13.20
2023-05-15T03:57:41.854Z,13.10
2023-05-15T04:00:12.022Z,13.10
2023-05-15T04:02:43.869Z,13.10
2023-05-15T04:05:12.160Z,13.10
2023-05-15T04:07:40.239Z,13.00
2023-05-15T04:10:09.460Z,13.00
2023-05-15T04:12:39.202Z,13.00
2023-05-15T04:15:33.432Z,13.00
2023-05-15T04:18:26.045Z,13.00
2023-05-15T04:20:54.460Z,13.00
2023-05-15T04:23:22.743Z,13.00
2023-05-15T04:25:53.698Z,13.00
2023-05-15T04:28:23.288Z,12.90
2023-05-15T04:30:51.618Z,12.90
2023-05-15T04:33:19.813Z,12.90
2023-05-15T04:35:48.213Z,12.90
2023-05-15T04:38:18.995Z,12.90
2023-05-15T04:40:47.397Z,12.90
2023-05-15T04:43:15.718Z,12.90
2023-05-15T04:45:45.343Z,12.90
2023-05-15T04:48:13.774Z,12.90
2023-05-15T04:51:10.793Z,12.90
2023-05-15T04:53:38.963Z,12.90
2023-05-15T04:56:07.505Z,12.90
2023-05-15T05:02:11.489Z,12.90
2023-05-15T05:04:40.446Z,13.00
2023-05-15T05:07:31.519Z,12.90
2023-05-15T05:09:59.688Z,12.90
2023-05-15T05:12:30.057Z,12.90
2023-05-15T05:15:05.582Z,12.90
2023-05-15T05:17:35.280Z,13.00
2023-05-15T05:20:04.692Z,13.00
2023-05-15T05:22:32.949Z,13.00
2023-05-15T05:25:01.733Z,13.00
2023-05-15T05:27:30.571Z,13.00
2023-05-15T05:29:58.886Z,13.00
2023-05-15T05:32:27.161Z,13.10
2023-05-15T05:34:56.728Z,13.10
2023-05-15T05:37:25.049Z,13.10
2023-05-15T05:39:53.258Z,13.10
2023-05-15T05:42:21.423Z,13.10
2023-05-15T05:44:49.593Z,13.10
2023-05-15T05:47:18.212Z,13.10
2023-05-15T05:49:48.135Z,13.10
2023-05-15T05:52:17.770Z,13.10
2023-05-15T05:54:48.019Z,13.10
2023-05-15T05:57:16.637Z,13.10
2023-05-15T05:59:45.843Z,13.10
2023-05-15T06:02:14.690Z,13.10
2023-05-15T06:04:43.100Z,13.20
2023-05-15T06:07:11.427Z,13.20
2023-05-15T06:09:41.241Z,13.20
2023-05-15T06:12:09.890Z,13.20
2023-05-15T06:14:38.194Z,13.20
2023-05-15T06:17:06.869Z,13.20
2023-05-15T06:19:35.266Z,13.20
2023-05-15T06:22:03.814Z,13.20
2023-05-15T06:24:32.171Z,13.20
2023-05-15T06:27:02.055Z,13.20
2023-05-15T06:29:30.496Z,13.20
2023-05-15T06:31:58.923Z,13.20
2023-05-15T06:34:27.154Z,13.20
2023-05-15T06:36:55.445Z,13.20
2023-05-15T06:39:23.874Z,13.20
2023-05-15T06:41:58.068Z,13.20
2023-05-15T06:44:27.813Z,13.20
2023-05-15T06:46:56.220Z,13.20
2023-05-15T06:49:25.616Z,13.20
2023-05-15T06:51:54.987Z,13.20
2023-05-15T06:54:23.322Z,13.30
2023-05-15T06:56:51.769Z,13.30
2023-05-15T06:59:19.971Z,13.30
2023-05-15T07:01:49.682Z,13.30
2023-05-15T07:04:18.181Z,13.30
2023-05-15T07:06:46.500Z,13.30
2023-05-15T07:09:16.431Z,13.30
2023-05-15T07:11:44.783Z,13.40
2023-05-15T07:14:13.051Z,13.40
2023-05-15T07:16:41.269Z,13.40
2023-05-15T07:19:11.594Z,13.40
2023-05-15T07:21:40.693Z,13.40
2023-05-15T07:24:09.530Z,13.50
2023-05-15T07:26:50.283Z,13.50
2023-05-15T07:29:29.249Z,13.50
2023-05-15T07:31:57.966Z,13.60
2023-05-15T07:34:27.764Z,13.60
2023-05-15T07:36:56.075Z,13.60
2023-05-15T07:39:24.412Z,13.70
2023-05-15T07:41:52.756Z,13.70
2023-05-15T07:44:21.124Z,13.70
2023-05-15T07:46:49.575Z,13.70
2023-05-15T07:49:17.934Z,13.70
2023-05-15T07:51:47.755Z,13.70
2023-05-15T07:54:16.204Z,13.70
2023-05-15T07:56:44.473Z,13.80
2023-05-15T07:59:13.012Z,13.80
2023-05-15T08:01:41.580Z,13.90
2023-05-15T08:04:10.521Z,13.90
2023-05-15T08:06:39.836Z,13.90
2023-05-15T08:09:12.791Z,13.90
2023-05-15T08:11:41.478Z,14.00
2023-05-15T08:14:12.353Z,14.00
2023-05-15T08:16:42.331Z,14.00
2023-05-15T08:19:10.898Z,14.10
2023-05-15T08:21:40.988Z,14.10
2023-05-15T08:24:13.758Z,14.10
2023-05-15T08:26:42.004Z,14.20
2023-05-15T08:29:11.575Z,14.20
2023-05-15T08:31:40.184Z,14.30
2023-05-15T08:34:08.503Z,14.30
2023-05-15T08:36:37.828Z,14.30
2023-05-15T08:39:09.258Z,14.40
2023-05-15T08:41:49.351Z,14.50
2023-05-15T08:44:18.397Z,14.50
2023-05-15T08:46:48.682Z,14.60
2023-05-15T08:49:37.953Z,14.60
2023-05-15T08:52:07.379Z,14.70
2023-05-15T08:54:36.762Z,14.70
2023-05-15T08:57:07.180Z,14.70
2023-05-15T08:59:35.834Z,14.80
2023-05-15T09:02:04.286Z,14.80
2023-05-15T09:04:33.349Z,14.80
2023-05-15T09:07:06.427Z,14.90
2023-05-15T09:09:35.513Z,14.90
2023-05-15T09:12:11.561Z,15.00
2023-05-15T09:14:40.040Z,15.00
2023-05-15T09:17:08.557Z,15.00
2023-05-15T09:19:41.157Z,15.10
2023-05-15T09:22:18.178Z,15.10
2023-05-15T09:24:48.166Z,15.10
2023-05-15T09:27:18.239Z,15.20
2023-05-15T09:29:47.365Z,15.20
2023-05-15T09:32:16.590Z,15.30
2023-05-15T09:34:46.230Z,15.30
2023-05-15T09:37:31.112Z,15.30
2023-05-15T09:40:10.768Z,15.40
2023-05-15T09:42:40.546Z,15.50
2023-05-15T09:45:19.076Z,15.60
2023-05-15T09:47:48.026Z,15.70
2023-05-15T09:50:34.536Z,15.80
2023-05-15T09:53:03.754Z,15.90
2023-05-15T09:55:34.129Z,16.00
2023-05-15T09:58:13.561Z,16.10
2023-05-15T10:00:47.729Z,16.30
2023-05-15T10:03:20.633Z,16.40
2023-05-15T10:05:49.312Z,16.50
2023-05-15T10:08:28.573Z,16.50
2023-05-15T10:11:02.081Z,16.50
2023-05-15T10:13:40.887Z,16.50
2023-05-15T10:16:09.965Z,16.60
2023-05-15T10:18:41.813Z,16.70
2023-05-15T10:21:11.041Z,16.70
2023-05-15T10:23:46.595Z,16.80
2023-05-15T10:26:22.712Z,16.90
2023-05-15T10:28:53.612Z,17.10
2023-05-15T10:31:22.824Z,17.20
2023-05-15T10:33:55.114Z,17.40
2023-05-15T10:36:24.698Z,17.50
2023-05-15T10:38:56.852Z,17.60
2023-05-15T10:41:27.239Z,17.70
2023-05-15T10:44:02.545Z,17.80
2023-05-15T10:46:35.913Z,17.90
2023-05-15T10:49:06.750Z,18.00
2023-05-15T10:51:39.695Z,18.10
2023-05-15T10:54:12.966Z,18.20
2023-05-15T10:56:43.353Z,18.30
2023-05-15T10:59:17.430Z,18.30
2023-05-15T11:01:46.119Z,18.50
2023-05-15T11:04:16.496Z,18.60
2023-05-15T11:06:52.552Z,18.70
2023-05-15T11:09:40.916Z,18.80
2023-05-15T11:12:11.835Z,18.90
2023-05-15T11:14:44.574Z,19.10
2023-05-15T11:17:15.344Z,19.30
2023-05-15T11:20:02.489Z,19.40
2023-05-15T11:22:36.817Z,19.50
2023-05-15T11:25:10.271Z,19.70
2023-05-15T11:27:42.413Z,19.70
2023-05-15T11:30:20.422Z,19.90
2023-05-15T11:32:59.656Z,19.90
2023-05-15T11:35:42.360Z,20.00
2023-05-15T11:38:17.128Z,20.10
2023-05-15T11:41:00.521Z,20.20
2023-05-15T11:43:40.757Z,20.20
2023-05-15T11:46:27.613Z,20.30
2023-05-15T11:49:03.437Z,20.40
2023-05-15T11:51:47.901Z,20.50
2023-05-15T11:54:28.052Z,20.60
2023-05-15T11:57:07.414Z,20.70
2023-05-15T11:59:54.532Z,20.80
2023-05-15T12:02:33.178Z,20.90
2023-05-15T12:05:25.339Z,21.00
2023-05-15T12:08:25.065Z,21.10
2023-05-15T12:11:25.505Z,21.20
2023-05-15T12:14:27.311Z,21.10
2023-05-15T12:17:27.803Z,21.20
2023-05-15T12:20:12.673Z,21.40
2023-05-15T12:22:51.329Z,21.50
2023-05-15T12:26:03.771Z,21.60
2023-05-15T13:14:18.911Z,22.10
2023-05-15T13:17:54.136Z,22.30
2023-05-15T14:20:56.842Z,22.90
2023-05-15T14:29:08.395Z,22.90
2023-05-15T14:48:09.932Z,22.70
2023-05-15T14:51:36.134Z,22.70
2023-05-15T14:54:21.677Z,22.60
2023-05-15T15:04:27.052Z,22.40
2023-05-15T15:15:38.130Z,22.40
2023-05-15T15:18:52.290Z,22.40
2023-05-15T15:21:37.461Z,22.30
2023-05-15T15:24:30.965Z,22.40
2023-05-15T15:27:12.322Z,22.40
2023-05-15T15:29:51.897Z,22.50
2023-05-15T15:33:11.783Z,22.50
2023-05-15T15:35:54.678Z,22.50
2023-05-15T15:38:26.093Z,22.40
2023-05-15T15:41:09.847Z,22.50
2023-05-15T16:03:02.927Z,22.50
2023-05-15T17:13:30.255Z,21.00
2023-05-15T17:16:51.030Z,20.80
2023-05-15T17:26:29.632Z,20.40
2023-05-15T17:29:43.214Z,20.30
2023-05-15T17:32:17.722Z,20.10
2023-05-15T17:34:53.944Z,20.00
2023-05-15T17:42:39.148Z,19.80
2023-05-15T18:44:59.433Z,17.90
2023-05-15T18:48:08.208Z,17.80
2023-05-15T18:50:37.369Z,17.70
2023-05-15T19:22:34.393Z,17.30
2023-05-15T19:25:38.988Z,17.30
2023-05-15T19:28:08.311Z,17.20
2023-05-15T19:30:36.615Z,17.20
2023-05-15T19:33:18.140Z,17.20
2023-05-15T19:36:31.978Z,17.10
2023-05-15T19:39:46.730Z,17.10
2023-05-15T19:42:23.271Z,17.10
2023-05-15T19:45:17.355Z,17.10
2023-05-15T19:48:02.525Z,17.00
2023-05-15T19:53:41.306Z,16.90
2023-05-15T19:56:34.726Z,16.90
2023-05-15T19:59:17.106Z,16.80
2023-05-15T20:02:13.878Z,16.80
2023-05-15T20:05:59.810Z,16.70
2023-05-15T20:08:59.124Z,16.70
2023-05-15T20:11:56.554Z,16.60
2023-05-15T20:14:24.883Z,16.60
2023-05-15T20:16:52.999Z,16.50
2023-05-15T20:19:24.249Z,16.50
2023-05-15T20:21:52.496Z,16.40
2023-05-15T20:24:25.527Z,16.40
2023-05-15T20:26:55.013Z,16.30
2023-05-15T20:29:23.217Z,16.30
2023-05-15T20:32:11.939Z,16.30
2023-05-15T20:34:45.537Z,16.20
2023-05-15T20:37:13.952Z,16.20
2023-05-15T20:39:42.455Z,16.10
2023-05-15T20:42:12.113Z,16.10
2023-05-15T20:44:40.460Z,16.10
2023-05-15T20:47:08.746Z,16.00
2023-05-15T20:49:36.936Z,16.00
2023-05-15T20:52:05.604Z,15.90
2023-05-15T20:54:36.367Z,15.90
2023-05-15T20:57:06.163Z,15.90
2023-05-15T20:59:35.651Z,15.80
2023-05-15T21:02:03.745Z,15.80
2023-05-15T21:04:32.020Z,15.80
2023-05-15T21:07:00.130Z,15.80
2023-05-15T21:09:28.217Z,15.80
2023-05-15T21:11:56.347Z,15.70
2023-05-15T21:14:24.393Z,15.70
2023-05-15T21:16:53.927Z,15.70
2023-05-15T21:19:22.436Z,15.60
2023-05-15T21:21:50.728Z,15.60
2023-05-15T21:24:18.852Z,15.60
2023-05-15T21:26:47.093Z,15.60
2023-05-15T21:29:15.512Z,15.50
2023-05-15T21:31:43.870Z,15.50
2023-05-15T21:34:13.354Z,15.50
2023-05-15T21:36:41.569Z,15.50
2023-05-15T21:39:09.666Z,15.40
2023-05-15T21:41:38.046Z,15.40
2023-05-15T21:44:06.311Z,15.40
2023-05-15T21:46:35.089Z,15.40
2023-05-15T21:49:48.141Z,15.30
2023-05-15T21:52:33.058Z,15.30
2023-05-15T21:55:26.208Z,15.20
2023-05-15T21:58:30.488Z,15.10
2023-05-15T22:01:28.489Z,15.10
2023-05-15T22:04:08.290Z,15.10
2023-05-15T22:06:44.979Z,15.00
2023-05-15T22:09:21.855Z,15.00
2023-05-15T22:12:09.096Z,15.00
2023-05-15T22:14:57.464Z,14.90
2023-05-15T22:17:41.725Z,14.80
2023-05-15T22:24:00.355Z,14.60
2023-05-15T22:26:58.587Z,14.50
2023-05-15T22:29:26.686Z,14.50
2023-05-15T22:31:54.834Z,14.40
2023-05-15T22:34:23.177Z,14.30
2023-05-15T22:36:51.310Z,14.20
2023-05-15T22:39:20.817Z,14.20
2023-05-15T22:41:49.266Z,14.10
2023-05-15T22:44:17.499Z,14.00
2023-05-15T22:46:46.392Z,13.90
2023-05-15T22:49:23.610Z,13.80
2023-05-15T22:51:52.080Z,13.80
2023-05-15T22:55:14.604Z,13.80
2023-05-15T22:57:44.189Z,13.70
2023-05-15T23:00:14.622Z,13.70
2023-05-15T23:02:44.904Z,13.70
2023-05-15T23:05:13.404Z,13.60
2023-05-15T23:07:44.581Z,13.50
2023-05-15T23:10:24.540Z,13.50
2023-05-15T23:12:52.753Z,13.40
2023-05-15T23:15:21.279Z,13.40
2023-05-15T23:17:49.547Z,13.40
2023-05-15T23:20:17.977Z,13.30
2023-05-15T23:22:46.075Z,13.30
2023-05-15T23:25:14.286Z,13.20
2023-05-15T23:27:43.698Z,13.20
2023-05-15T23:30:12.656Z,13.20
2023-05-15T23:32:40.782Z,13.10
2023-05-15T23:35:10.190Z,13.10
2023-05-15T23:37:38.618Z,13.10
2023-05-15T23:40:08.262Z,13.00
2023-05-15T23:42:36.328Z,13.00
2023-05-15T23:45:07.516Z,13.00
2023-05-15T23:47:35.702Z,13.00
2023-05-15T23:50:04.082Z,12.90
2023-05-15T23:52:32.513Z,12.90
2023-05-15T23:55:00.981Z,12.90
2023-05-15T23:57:29.103Z,12.90
2023-05-15T23:59:57.243Z,12.90
